createdAt,value
2022-08-31T00:00:12.851Z,11.13
2022-08-31T00:04:16.073Z,12.23
2022-08-31T00:08:53.401Z,12.57
2022-08-31T00:12:58.051Z,10.68
2022-08-31T00:17:32.121Z,12.63
2022-08-31T00:21:35.316Z,8.85
2022-08-31T00:25:41.229Z,13.70
2022-08-31T00:29:45.930Z,11.73
2022-08-31T00:33:52.694Z,13.00
2022-08-31T00:37:56.144Z,13.05
2022-08-31T00:41:59.649Z,13.20
2022-08-31T00:46:04.329Z,11.00
2022-08-31T00:55:30.394Z,10.68
2022-08-31T00:59:58.713Z,15.68
2022-08-31T01:04:03.637Z,14.18
2022-08-31T01:08:08.155Z,11.73
2022-08-31T01:12:15.207Z,8.65
2022-08-31T01:16:23.752Z,10.02
2022-08-31T01:21:01.418Z,11.13
2022-08-31T01:25:07.037Z,10.15
2022-08-31T01:29:40.748Z,11.90
2022-08-31T01:33:44.227Z,9.70
2022-08-31T01:37:47.341Z,9.38
2022-08-31T01:41:52.396Z,9.93
2022-08-31T01:45:55.569Z,13.90
2022-08-31T01:49:58.751Z,10.00
2022-08-31T01:54:02.573Z,10.70
2022-08-31T01:58:07.955Z,11.73
2022-08-31T02:02:11.524Z,18.55
2022-08-31T02:06:48.915Z,13.00
2022-08-31T02:11:22.577Z,9.85
2022-08-31T02:16:00.986Z,8.50
2022-08-31T02:20:34.849Z,12.68
2022-08-31T02:25:11.811Z,11.57
2022-08-31T02:29:50.580Z,10.32
2022-08-31T02:34:26.759Z,11.10
2022-08-31T02:38:30.016Z,7.80
2022-08-31T02:42:52.085Z,10.93
2022-08-31T02:46:56.243Z,8.95
2022-08-31T02:51:34.908Z,7.50
2022-08-31T02:55:38.194Z,9.13
2022-08-31T02:59:41.333Z,11.50
2022-08-31T03:04:15.260Z,10.52
2022-08-31T03:08:20.041Z,7.55
2022-08-31T03:12:23.189Z,11.60
2022-08-31T03:16:26.391Z,12.68
2022-08-31T03:20:30.306Z,11.07
2022-08-31T03:25:04.192Z,10.70
2022-08-31T03:29:43.270Z,9.70
2022-08-31T03:33:46.366Z,12.52
2022-08-31T03:38:22.982Z,12.15
2022-08-31T03:42:26.931Z,12.05
2022-08-31T03:47:00.517Z,8.50
2022-08-31T03:51:03.625Z,7.40
2022-08-31T03:55:08.990Z,8.35
2022-08-31T03:59:42.803Z,11.45
2022-08-31T04:04:20.992Z,8.57
2022-08-31T04:08:25.837Z,10.23
2022-08-31T04:12:59.439Z,10.77
2022-08-31T04:17:36.514Z,8.82
2022-08-31T04:21:45.405Z,9.65
2022-08-31T04:25:48.580Z,9.65
2022-08-31T04:30:22.574Z,9.38
2022-08-31T04:34:25.713Z,9.82
2022-08-31T04:39:02.613Z,8.73
2022-08-31T04:43:07.597Z,7.68
2022-08-31T04:47:42.019Z,11.18
2022-08-31T04:52:16.043Z,9.70
2022-08-31T04:56:22.331Z,9.77
2022-08-31T05:00:57.814Z,6.95
2022-08-31T05:05:01.587Z,10.45
2022-08-31T05:09:38.474Z,12.00
2022-08-31T05:13:41.966Z,9.05
2022-08-31T05:18:18.209Z,8.70
2022-08-31T05:22:54.961Z,7.45
2022-08-31T05:26:58.172Z,6.53
2022-08-31T05:31:01.448Z,9.82
2022-08-31T05:35:40.004Z,9.88
2022-08-31T05:39:43.107Z,11.40
2022-08-31T05:44:21.412Z,8.70
2022-08-31T05:48:33.678Z,6.95
2022-08-31T05:52:38.258Z,9.38
2022-08-31T05:56:43.059Z,14.85
2022-08-31T06:01:17.224Z,6.28
2022-08-31T06:05:21.126Z,8.00
2022-08-31T06:09:55.287Z,7.53
2022-08-31T06:14:02.403Z,7.63
2022-08-31T06:18:38.433Z,8.20
2022-08-31T06:23:12.591Z,8.88
2022-08-31T06:27:50.541Z,9.18
2022-08-31T06:32:26.346Z,6.97
2022-08-31T06:36:59.822Z,8.63
2022-08-31T06:41:37.855Z,8.05
2022-08-31T06:46:11.826Z,6.78
2022-08-31T06:50:17.961Z,8.98
2022-08-31T06:54:49.698Z,8.88
2022-08-31T06:59:28.772Z,8.10
2022-08-31T07:03:34.523Z,8.30
2022-08-31T07:07:39.894Z,8.90
2022-08-31T07:12:14.058Z,6.95
2022-08-31T07:16:51.373Z,8.25
2022-08-31T07:20:54.490Z,7.93
2022-08-31T07:25:02.417Z,8.75
2022-08-31T07:29:40.673Z,7.07
2022-08-31T07:34:11.442Z,6.57
2022-08-31T07:38:32.193Z,7.00
2022-08-31T07:42:38.871Z,8.10
2022-08-31T07:46:42.026Z,8.32
2022-08-31T07:50:46.868Z,6.10
2022-08-31T07:55:21.645Z,6.50
2022-08-31T07:59:26.111Z,8.73
2022-08-31T08:04:02.186Z,7.88
2022-08-31T08:08:13.577Z,6.20
2022-08-31T08:12:22.480Z,6.40
2022-08-31T08:16:58.745Z,5.65
2022-08-31T08:21:32.675Z,6.90
2022-08-31T08:26:21.301Z,6.13
2022-08-31T08:30:46.714Z,8.05
2022-08-31T08:35:24.056Z,7.70
2022-08-31T08:40:01.629Z,6.30
2022-08-31T08:44:34.278Z,8.25
2022-08-31T08:49:14.388Z,6.50
2022-08-31T08:53:17.628Z,5.97
2022-08-31T08:57:56.211Z,5.72
2022-08-31T09:02:32.567Z,6.65
2022-08-31T09:07:11.809Z,8.02
2022-08-31T09:11:46.702Z,6.75
2022-08-31T09:16:04.524Z,9.63
2022-08-31T09:20:28.394Z,8.65
2022-08-31T09:24:32.613Z,8.80
2022-08-31T09:28:37.938Z,7.43
2022-08-31T09:33:19.606Z,8.80
2022-08-31T09:37:25.522Z,13.55
2022-08-31T09:42:04.176Z,7.75
2022-08-31T09:46:10.015Z,9.52
2022-08-31T09:50:45.304Z,10.80
2022-08-31T09:55:25.267Z,7.90
2022-08-31T09:59:56.178Z,9.88
2022-08-31T10:04:20.593Z,5.97
2022-08-31T10:08:39.596Z,6.25
2022-08-31T10:12:49.691Z,7.68
2022-08-31T10:17:23.882Z,9.82
2022-08-31T10:21:56.085Z,7.70
2022-08-31T10:26:03.516Z,7.68
2022-08-31T10:30:34.256Z,8.70
2022-08-31T10:34:59.992Z,9.60
2022-08-31T10:39:03.309Z,5.90
2022-08-31T10:43:45.174Z,7.65
2022-08-31T10:47:50.324Z,7.53
2022-08-31T10:52:03.264Z,6.20
2022-08-31T10:56:37.449Z,7.60
2022-08-31T11:00:49.598Z,8.20
2022-08-31T11:05:02.269Z,9.30
2022-08-31T11:09:32.818Z,10.63
2022-08-31T11:14:03.512Z,7.88
2022-08-31T11:18:36.319Z,7.30
2022-08-31T11:23:26.967Z,6.97
2022-08-31T11:27:54.313Z,10.20
2022-08-31T11:32:01.042Z,8.65
2022-08-31T11:36:08.979Z,8.55
2022-08-31T11:41:00.864Z,8.95
2022-08-31T11:45:10.921Z,8.05
2022-08-31T11:49:38.814Z,7.90
2022-08-31T11:59:20.599Z,6.63
2022-08-31T12:03:44.890Z,5.63
2022-08-31T12:07:49.562Z,8.63
2022-08-31T12:12:30.824Z,11.75
2022-08-31T12:16:47.071Z,9.68
2022-08-31T12:21:16.458Z,11.18
2022-08-31T12:25:29.018Z,13.90
2022-08-31T12:30:08.746Z,7.82
2022-08-31T12:34:31.199Z,9.00
2022-08-31T12:39:13.578Z,10.88
2022-08-31T12:43:46.182Z,14.90
2022-08-31T12:48:01.439Z,10.30
2022-08-31T12:52:33.529Z,10.82
2022-08-31T12:57:08.054Z,13.60
2022-08-31T13:01:41.418Z,18.75
2022-08-31T13:06:17.137Z,14.18
2022-08-31T13:10:50.901Z,17.27
2022-08-31T13:15:29.563Z,17.42
2022-08-31T13:19:35.707Z,16.67
2022-08-31T13:24:10.351Z,18.13
2022-08-31T13:28:30.593Z,14.82
2022-08-31T13:33:22.293Z,19.95
2022-08-31T13:37:30.097Z,16.05
2022-08-31T13:42:05.412Z,15.32
2022-08-31T13:46:43.141Z,16.88
2022-08-31T13:51:19.672Z,14.05
2022-08-31T14:00:42.253Z,20.98
2022-08-31T14:05:28.590Z,17.02
2022-08-31T14:09:53.290Z,16.80
2022-08-31T14:14:29.963Z,20.20
2022-08-31T14:19:04.047Z,21.45
2022-08-31T14:23:42.156Z,16.67
2022-08-31T14:28:17.555Z,24.98
2022-08-31T14:32:51.590Z,19.90
2022-08-31T14:37:33.262Z,20.30
2022-08-31T14:41:36.405Z,20.52
2022-08-31T14:46:13.155Z,17.45
2022-08-31T14:50:51.879Z,16.85
2022-08-31T14:55:00.648Z,14.38
2022-08-31T14:59:32.507Z,13.00
2022-08-31T15:04:06.875Z,14.57
2022-08-31T15:08:45.130Z,9.43
2022-08-31T15:13:23.650Z,12.60
2022-08-31T15:17:57.543Z,7.32
2022-08-31T15:22:35.339Z,12.88
2022-08-31T15:27:15.231Z,16.98
2022-08-31T15:31:23.681Z,11.52
2022-08-31T15:36:02.572Z,21.42
2022-08-31T15:40:07.265Z,12.02
2022-08-31T15:44:11.865Z,12.38
2022-08-31T15:48:48.895Z,15.20
2022-08-31T15:52:55.878Z,15.68
2022-08-31T15:56:58.999Z,12.10
2022-08-31T16:01:38.031Z,13.80
2022-08-31T16:06:12.271Z,10.45
2022-08-31T16:10:49.420Z,10.05
2022-08-31T16:15:29.076Z,17.08
2022-08-31T16:20:05.439Z,15.52
2022-08-31T16:24:39.813Z,16.00
2022-08-31T16:29:14.966Z,14.05
2022-08-31T16:33:55.366Z,14.68
2022-08-31T16:38:31.075Z,14.27
2022-08-31T16:43:05.318Z,14.73
2022-08-31T16:47:42.559Z,12.77
2022-08-31T16:52:21.426Z,16.50
2022-08-31T16:56:58.092Z,14.30
2022-08-31T17:01:33.154Z,17.27
2022-08-31T17:06:07.090Z,17.45
2022-08-31T17:10:43.995Z,13.73
2022-08-31T17:15:25.395Z,16.15
2022-08-31T17:19:56.655Z,14.38
2022-08-31T17:24:35.872Z,19.50
2022-08-31T17:29:09.965Z,20.02
2022-08-31T17:33:46.707Z,18.08
2022-08-31T17:38:25.502Z,18.67
2022-08-31T17:43:05.673Z,20.42
2022-08-31T17:47:36.432Z,31.75
2022-08-31T17:52:13.046Z,26.92
2022-08-31T17:56:54.040Z,27.80
2022-08-31T18:01:30.313Z,25.42
2022-08-31T18:06:01.591Z,28.70
2022-08-31T18:10:39.225Z,33.05
2022-08-31T18:15:17.322Z,33.83
2022-08-31T18:19:48.379Z,33.88
2022-08-31T18:24:25.626Z,34.45
2022-08-31T18:29:04.115Z,35.80
2022-08-31T18:33:14.872Z,41.30
2022-08-31T18:37:21.094Z,33.70
2022-08-31T18:41:43.828Z,36.15
2022-08-31T18:45:49.614Z,36.83
2022-08-31T18:50:35.024Z,41.22
2022-08-31T18:55:02.306Z,35.33
2022-08-31T18:59:37.089Z,42.58
2022-08-31T19:04:17.623Z,33.63
2022-08-31T19:08:50.607Z,37.22
2022-08-31T19:13:26.292Z,36.08
2022-08-31T19:17:29.537Z,39.35
2022-08-31T19:22:07.322Z,37.97
2022-08-31T19:26:12.197Z,35.53
2022-08-31T19:30:47.691Z,34.38
2022-08-31T19:35:21.197Z,31.58
2022-08-31T19:39:58.180Z,32.67
2022-08-31T19:44:08.138Z,33.78
2022-08-31T19:48:11.962Z,29.20
2022-08-31T19:52:49.176Z,39.65
2022-08-31T20:02:09.197Z,27.00
2022-08-31T20:06:43.231Z,23.80
2022-08-31T20:10:47.371Z,27.40
2022-08-31T20:15:21.185Z,28.48
2022-08-31T20:19:29.940Z,28.30
2022-08-31T20:24:03.015Z,32.13
2022-08-31T20:28:37.539Z,33.60
2022-08-31T20:32:41.383Z,28.58
2022-08-31T20:37:18.410Z,27.25
2022-08-31T20:41:23.035Z,30.55
2022-08-31T20:45:26.141Z,30.17
2022-08-31T20:50:02.938Z,26.80
2022-08-31T20:54:06.537Z,27.52
2022-08-31T21:03:26.858Z,32.03
2022-08-31T21:07:30.154Z,33.80
2022-08-31T21:11:36.551Z,38.88
2022-08-31T21:15:45.084Z,43.30
2022-08-31T21:20:20.882Z,33.28
2022-08-31T21:24:24.015Z,28.17
2022-08-31T21:28:29.254Z,26.38
2022-08-31T21:32:32.769Z,31.65
2022-08-31T21:36:38.675Z,34.30
2022-08-31T21:40:48.722Z,29.55
2022-08-31T21:45:16.421Z,31.65
2022-08-31T21:49:20.297Z,27.95
2022-08-31T21:53:25.861Z,31.23
2022-08-31T21:57:28.999Z,30.77
2022-08-31T22:01:33.921Z,33.85
2022-08-31T22:06:07.444Z,27.05
2022-08-31T22:10:12.304Z,31.63
2022-08-31T22:14:17.824Z,29.05
2022-08-31T22:19:00.172Z,30.25
2022-08-31T22:22:44.092Z,31.58
2022-08-31T22:26:52.506Z,29.30
2022-08-31T22:30:56.238Z,26.05
2022-08-31T22:34:59.562Z,21.08
2022-08-31T22:39:04.248Z,22.42
2022-08-31T22:43:09.490Z,26.52
2022-08-31T22:47:13.387Z,29.02
2022-08-31T22:51:48.594Z,36.80
2022-08-31T22:55:51.874Z,39.50
2022-08-31T22:59:58.607Z,44.53
2022-08-31T23:04:05.547Z,36.78
2022-08-31T23:08:09.834Z,40.17
2022-08-31T23:12:13.078Z,40.25
2022-08-31T23:16:18.181Z,41.97
2022-08-31T23:20:52.863Z,43.28
2022-08-31T23:24:57.949Z,48.85
2022-08-31T23:29:01.841Z,45.28
2022-08-31T23:33:07.017Z,46.20
2022-08-31T23:37:11.556Z,47.00
2022-08-31T23:41:14.718Z,48.60
2022-08-31T23:45:18.863Z,46.17
2022-08-31T23:49:23.466Z,48.53
2022-08-31T23:53:28.216Z,47.42
2022-08-31T23:57:33.493Z,41.60
